Terminal Aerodrome Forecast
Issued by NWS Portland, OR

Home | Current Version | Previous Version | Text Only | Print | Product List | Glossary On
Versions: 1 2 3 4 5 6 7 8 9 10 11 12 13 14 15 16 17 18 19 20 21 22 23 24 25 26 27 28
000
FTUS46 KPQR 020539
TAFHIO
TAF
KHIO 020539Z 0206/0306 29007KT P6SM -SHRA BKN040 OVC050
      TEMPO 0206/0207 SCT009 BKN015 OVC025
     FM021300 26003KT P6SM -RA OVC025
     FM022200 26005KT P6SM VCSH SCT025 BKN050
     FM030100 31005KT P6SM VCSH BKN050 BKN080=

USA.gov is the U.S. government's official web portal to all federal, state and local government web resources and services.